Vets Row, Illinois
Current Conditions -  °F | °C
As of 9:55 PM on Thursday 18 Dec 2014 (Local Time) from KC75 Reporting Station
Scattered Clouds Scattered Clouds  
Wind Chill: 18°   Ceiling: Unl
Heat Index: 18°   Visibility: 7mi
Dew Point: 16°   Wind: 0mph
Humidity: 90%   Direction: NA
Pressure: 30.29"   Gusts: NA
Location:  40.915°N, 89.5303°W
Report Text: KC75 190355Z AUTO 00000KT 7SM SCT110 M08/M09 A3029 RMK AO2 T10771091
Loading
Personal Weather Stations






























Interactive Weather Map New forecast layout! Learn more

10-Day Weather Forecast

Advertisements
Track Severe Weather on mobile